Time,TemperatureF,DewpointF,PressureIn,WindDirection,WindDirectionDegrees,WindSpeedMPH,WindSpeedGustMPH,Humidity,HourlyPrecipIn,Conditions,Clouds,dailyrainin,SolarRadiationWatts/m^2,SoftwareType,DateUTC
2013-01-08 00:22:00,32.0,32.0,-100.00,North,357,7.0,15.0,100,0.00,,,0.22,0.000000,,2013-01-08 09:22:00,
2013-01-08 00:32:00,32.0,32.0,-100.00,North,357,7.0,15.0,100,0.00,,,0.22,0.000000,,2013-01-08 09:32:00,
2013-01-08 00:42:00,32.0,32.0,-100.00,North,357,7.0,15.0,100,0.00,,,0.22,0.000000,,2013-01-08 09:42:00,
2013-01-08 00:52:00,32.0,32.0,-100.00,North,357,7.0,15.0,100,0.00,,,0.22,0.000000,,2013-01-08 09:52:00,
2013-01-08 01:22:00,32.0,32.0,-100.00,NNW,327,6.0,11.0,100,0.00,,,0.19,0.000000,,2013-01-08 10:22:00,
2013-01-08 01:32:00,32.0,32.0,-100.00,NNW,327,6.0,11.0,100,0.00,,,0.19,0.000000,,2013-01-08 10:32:00,
2013-01-08 01:42:00,32.0,32.0,-100.00,NNW,327,6.0,11.0,100,0.00,,,0.19,0.000000,,2013-01-08 10:42:00,
2013-01-08 01:52:00,32.0,32.0,-100.00,NNW,327,6.0,11.0,100,0.00,,,0.19,0.000000,,2013-01-08 10:52:00,
2013-01-08 02:22:00,32.0,32.0,-100.00,NW,324,6.0,13.0,100,0.00,,,0.14,0.000000,,2013-01-08 11:22:00,
2013-01-08 02:32:00,32.0,32.0,-100.00,NW,324,6.0,13.0,100,0.00,,,0.14,0.000000,,2013-01-08 11:32:00,
2013-01-08 02:42:00,32.0,32.0,-100.00,NW,324,6.0,13.0,100,0.00,,,0.14,0.000000,,2013-01-08 11:42:00,
2013-01-08 02:53:00,32.0,32.0,-100.00,NW,324,6.0,13.0,100,0.00,,,0.14,0.000000,,2013-01-08 11:53:00,
2013-01-08 03:22:00,33.0,33.0,-100.00,NW,319,7.0,13.0,100,0.00,,,-99.99,0.000000,,2013-01-08 12:22:00,
2013-01-08 03:32:00,33.0,33.0,-100.00,NW,319,7.0,13.0,100,0.00,,,-99.99,0.000000,,2013-01-08 12:32:00,
2013-01-08 03:42:00,33.0,33.0,-100.00,NW,319,7.0,13.0,100,0.00,,,-99.99,0.000000,,2013-01-08 12:42:00,
2013-01-08 03:52:00,33.0,33.0,-100.00,NW,319,7.0,13.0,100,0.00,,,-99.99,0.000000,,2013-01-08 12:52:00,
2013-01-08 04:22:00,33.0,33.0,-100.00,NNW,329,11.0,17.0,100,0.01,,,0.08,0.000000,,2013-01-08 13:22:00,
2013-01-08 04:32:00,33.0,33.0,-100.00,NNW,329,11.0,17.0,100,0.01,,,0.08,0.000000,,2013-01-08 13:32:00,
2013-01-08 04:42:00,33.0,33.0,-100.00,NNW,329,11.0,17.0,100,0.01,,,0.08,0.000000,,2013-01-08 13:42:00,
2013-01-08 04:52:00,33.0,33.0,-100.00,NNW,329,11.0,17.0,100,0.01,,,0.08,0.000000,,2013-01-08 13:52:00,
2013-01-08 05:23:00,33.0,33.0,-100.00,NW,317,8.0,18.0,100,0.00,,,0.07,0.000000,,2013-01-08 14:23:00,
2013-01-08 05:33:00,33.0,33.0,-100.00,NW,317,8.0,18.0,100,0.00,,,0.07,0.000000,,2013-01-08 14:33:00,
2013-01-08 05:42:00,33.0,33.0,-100.00,NW,317,8.0,18.0,100,0.00,,,0.07,0.000000,,2013-01-08 14:42:00,
2013-01-08 05:53:00,33.0,33.0,-100.00,NW,317,8.0,18.0,100,0.00,,,0.07,0.000000,,2013-01-08 14:53:00,
2013-01-08 06:22:00,33.0,33.0,-100.00,NNW,328,9.0,16.0,100,0.01,,,0.07,0.000000,,2013-01-08 15:22:00,
2013-01-08 06:33:00,33.0,33.0,-100.00,NNW,328,9.0,16.0,100,0.01,,,0.07,0.000000,,2013-01-08 15:33:00,
2013-01-08 06:42:00,33.0,33.0,-100.00,NNW,328,9.0,16.0,100,0.01,,,0.07,0.000000,,2013-01-08 15:42:00,
2013-01-08 06:52:00,33.0,33.0,-100.00,NNW,328,9.0,16.0,100,0.01,,,0.07,0.000000,,2013-01-08 15:52:00,
2013-01-08 07:22:00,33.0,33.0,-100.00,NNW,335,6.0,17.0,100,0.00,,,0.07,0.000000,,2013-01-08 16:22:00,
2013-01-08 07:33:00,33.0,33.0,-100.00,NNW,335,6.0,17.0,100,0.00,,,0.07,0.000000,,2013-01-08 16:33:00,
2013-01-08 07:42:00,33.0,33.0,-100.00,NNW,335,6.0,17.0,100,0.00,,,0.07,0.000000,,2013-01-08 16:42:00,
2013-01-08 07:52:00,33.0,33.0,-100.00,NNW,335,6.0,17.0,100,0.00,,,0.07,0.000000,,2013-01-08 16:52:00,
2013-01-08 08:23:00,33.0,33.0,-100.00,WNW,300,6.0,13.0,100,0.00,,,0.07,0.000000,,2013-01-08 17:23:00,
2013-01-08 08:33:00,33.0,33.0,-100.00,WNW,300,6.0,13.0,100,0.00,,,0.07,0.000000,,2013-01-08 17:33:00,
2013-01-08 08:42:00,33.0,33.0,-100.00,WNW,300,6.0,13.0,100,0.00,,,0.07,0.000000,,2013-01-08 17:42:00,
2013-01-08 08:53:00,33.0,33.0,-100.00,WNW,300,6.0,13.0,100,0.00,,,0.07,0.000000,,2013-01-08 17:53:00,
2013-01-08 09:23:00,33.0,33.0,-100.00,NW,315,8.0,18.0,100,0.00,,,0.07,8.000000,,2013-01-08 18:23:00,
2013-01-08 09:33:00,33.0,33.0,-100.00,NW,315,8.0,18.0,100,0.00,,,0.07,8.000000,,2013-01-08 18:33:00,
2013-01-08 09:43:00,33.0,33.0,-100.00,NW,315,8.0,18.0,100,0.00,,,0.07,8.000000,,2013-01-08 18:43:00,
2013-01-08 09:52:00,33.0,33.0,-100.00,NW,315,8.0,18.0,100,0.00,,,0.07,8.000000,,2013-01-08 18:52:00,
2013-01-08 10:22:00,33.0,33.0,-100.00,NW,313,6.0,19.0,100,0.01,,,0.08,27.000000,,2013-01-08 19:22:00,
2013-01-08 10:32:00,33.0,33.0,-100.00,NW,313,6.0,19.0,100,0.01,,,0.08,27.000000,,2013-01-08 19:32:00,
2013-01-08 10:42:00,33.0,33.0,-100.00,NW,313,6.0,19.0,100,0.01,,,0.08,27.000000,,2013-01-08 19:42:00,
2013-01-08 10:53:00,33.0,33.0,-100.00,NW,313,6.0,19.0,100,0.01,,,0.08,27.000000,,2013-01-08 19:53:00,
2013-01-08 11:22:00,34.0,34.0,-100.00,NW,307,6.0,13.0,100,0.03,,,0.11,74.000000,,2013-01-08 20:22:00,
2013-01-08 11:33:00,34.0,34.0,-100.00,NW,307,6.0,13.0,100,0.03,,,0.11,74.000000,,2013-01-08 20:33:00,
2013-01-08 11:43:00,34.0,34.0,-100.00,NW,307,6.0,13.0,100,0.03,,,0.11,74.000000,,2013-01-08 20:43:00,
2013-01-08 11:53:00,34.0,34.0,-100.00,NW,307,6.0,13.0,100,0.03,,,0.11,74.000000,,2013-01-08 20:53:00,
2013-01-08 12:22:00,34.0,34.0,-100.00,WNW,303,5.0,13.0,100,0.02,,,0.13,79.000000,,2013-01-08 21:22:00,
2013-01-08 12:33:00,34.0,34.0,-100.00,WNW,303,5.0,13.0,100,0.02,,,0.13,79.000000,,2013-01-08 21:33:00,
2013-01-08 12:43:00,34.0,34.0,-100.00,WNW,303,5.0,13.0,100,0.02,,,0.13,79.000000,,2013-01-08 21:43:00,
2013-01-08 12:53:00,34.0,34.0,-100.00,WNW,303,5.0,13.0,100,0.02,,,0.13,79.000000,,2013-01-08 21:53:00,
2013-01-08 13:22:00,40.0,39.0,-100.00,West,259,2.0,7.0,97,0.04,,,0.17,224.000000,,2013-01-08 22:22:00,
2013-01-08 14:22:00,37.0,35.0,-100.00,SW,225,5.0,7.0,91,-99.99,,,0.20,221.000000,,2013-01-08 23:22:00,
2013-01-08 14:32:00,37.0,35.0,-100.00,SW,225,5.0,7.0,91,-99.99,,,0.20,221.000000,,2013-01-08 23:32:00,
2013-01-08 14:42:00,37.0,35.0,-100.00,SW,225,5.0,7.0,91,-99.99,,,0.20,221.000000,,2013-01-08 23:42:00,
2013-01-08 14:52:00,37.0,35.0,-100.00,SW,225,5.0,7.0,91,-99.99,,,0.20,221.000000,,2013-01-08 23:52:00,
2013-01-08 15:22:00,34.0,33.0,-100.00,SW,225,3.0,6.0,97,0.00,,,0.19,86.000000,,2013-01-09 00:22:00,
2013-01-08 15:32:00,34.0,33.0,-100.00,SW,225,3.0,6.0,97,0.00,,,0.19,86.000000,,2013-01-09 00:32:00,
2013-01-08 15:42:00,34.0,33.0,-100.00,SW,225,3.0,6.0,97,0.00,,,0.19,86.000000,,2013-01-09 00:42:00,
2013-01-08 15:52:00,34.0,33.0,-100.00,SW,225,3.0,6.0,97,0.00,,,0.19,86.000000,,2013-01-09 00:52:00,
2013-01-08 16:22:00,30.0,30.0,-100.00,West,262,3.0,7.0,100,0.00,,,0.16,8.000000,,2013-01-09 01:22:00,
2013-01-08 16:32:00,30.0,30.0,-100.00,West,262,3.0,7.0,100,0.00,,,0.16,8.000000,,2013-01-09 01:32:00,
2013-01-08 16:42:00,30.0,30.0,-100.00,West,262,3.0,7.0,100,0.00,,,0.16,8.000000,,2013-01-09 01:42:00,
2013-01-08 16:52:00,30.0,30.0,-100.00,West,262,3.0,7.0,100,0.00,,,0.16,8.000000,,2013-01-09 01:52:00,
2013-01-08 17:22:00,30.0,30.0,-100.00,SW,229,2.0,4.0,100,0.00,,,0.15,0.000000,,2013-01-09 02:22:00,
2013-01-08 17:32:00,30.0,30.0,-100.00,SW,229,2.0,4.0,100,0.00,,,0.15,0.000000,,2013-01-09 02:32:00,
2013-01-08 17:42:00,30.0,30.0,-100.00,SW,229,2.0,4.0,100,0.00,,,0.15,0.000000,,2013-01-09 02:42:00,
2013-01-08 17:52:00,30.0,30.0,-100.00,SW,229,2.0,4.0,100,0.00,,,0.15,0.000000,,2013-01-09 02:52:00,
2013-01-08 18:22:00,29.0,29.0,-100.00,SW,230,3.0,6.0,100,0.00,,,0.15,0.000000,,2013-01-09 03:22:00,
2013-01-08 18:33:00,29.0,29.0,-100.00,SW,230,3.0,6.0,100,0.00,,,0.15,0.000000,,2013-01-09 03:33:00,
2013-01-08 18:42:00,29.0,29.0,-100.00,SW,230,3.0,6.0,100,0.00,,,0.15,0.000000,,2013-01-09 03:42:00,
2013-01-08 18:52:00,29.0,29.0,-100.00,SW,230,3.0,6.0,100,0.00,,,0.15,0.000000,,2013-01-09 03:52:00,
2013-01-08 19:22:00,29.0,29.0,-100.00,WSW,240,5.0,6.0,100,0.00,,,-99.99,0.000000,,2013-01-09 04:22:00,
2013-01-08 19:32:00,29.0,29.0,-100.00,WSW,240,5.0,6.0,100,0.00,,,-99.99,0.000000,,2013-01-09 04:32:00,
2013-01-08 19:42:00,29.0,29.0,-100.00,WSW,240,5.0,6.0,100,0.00,,,-99.99,0.000000,,2013-01-09 04:42:00,
2013-01-08 19:52:00,29.0,29.0,-100.00,WSW,240,5.0,6.0,100,0.00,,,-99.99,0.000000,,2013-01-09 04:52:00,
2013-01-08 20:22:00,29.0,29.0,-100.00,SW,232,6.0,9.0,100,0.00,,,0.15,0.000000,,2013-01-09 05:22:00,
2013-01-08 20:33:00,29.0,29.0,-100.00,SW,232,6.0,9.0,100,0.00,,,0.15,0.000000,,2013-01-09 05:33:00,
2013-01-08 20:42:00,29.0,29.0,-100.00,SW,232,6.0,9.0,100,0.00,,,0.15,0.000000,,2013-01-09 05:42:00,
2013-01-08 20:52:00,29.0,29.0,-100.00,SW,232,6.0,9.0,100,0.00,,,0.15,0.000000,,2013-01-09 05:52:00,
2013-01-08 21:22:00,29.0,29.0,-100.00,SW,229,8.0,11.0,99,0.00,,,0.15,0.000000,,2013-01-09 06:22:00,
2013-01-08 21:32:00,29.0,29.0,-100.00,SW,229,8.0,11.0,99,0.00,,,0.15,0.000000,,2013-01-09 06:32:00,
2013-01-08 21:42:00,29.0,29.0,-100.00,SW,229,8.0,11.0,99,0.00,,,0.15,0.000000,,2013-01-09 06:42:00,
2013-01-08 21:52:00,29.0,29.0,-100.00,SW,229,8.0,11.0,99,0.00,,,0.15,0.000000,,2013-01-09 06:52:00,
2013-01-08 22:22:00,29.0,28.0,-100.00,SW,218,9.0,14.0,95,0.00,,,0.15,0.000000,,2013-01-09 07:22:00,
2013-01-08 22:32:00,29.0,28.0,-100.00,SW,218,9.0,14.0,95,0.00,,,0.15,0.000000,,2013-01-09 07:32:00,
2013-01-08 22:42:00,29.0,28.0,-100.00,SW,218,9.0,14.0,95,0.00,,,0.15,0.000000,,2013-01-09 07:42:00,
2013-01-08 22:52:00,29.0,28.0,-100.00,SW,218,9.0,14.0,95,0.00,,,0.15,0.000000,,2013-01-09 07:52:00,
2013-01-08 23:22:00,28.0,27.0,-100.00,SW,232,7.0,12.0,94,0.00,,,0.15,0.000000,,2013-01-09 08:22:00,
2013-01-08 23:32:00,28.0,27.0,-100.00,SW,232,7.0,12.0,94,0.00,,,0.15,0.000000,,2013-01-09 08:32:00,
2013-01-08 23:42:00,28.0,27.0,-100.00,SW,232,7.0,12.0,94,0.00,,,0.15,0.000000,,2013-01-09 08:42:00,
2013-01-08 23:52:00,28.0,27.0,-100.00,SW,232,7.0,12.0,94,0.00,,,0.15,0.000000,,2013-01-09 08:52:00,